Time;durP1;ratioP1;P1;durP2;ratioP2;P2;SDS_P1;SDS_P2;PMS_P1;PMS_P2;Temp;Humidity;BMP_temperature;BMP_pressure;BME280_temperature;BME280_humidity;BME280_pressure;Samples;Min_cycle;Max_cycle;Signal;HPM_P1;HPM_P2
2022/04/27 00:02:10;;;;;;;2.67;2.57;;;;;;;17.93;83.23;99490.06;5148575;27;20236;-68
2022/04/27 00:04:37;;;;;;;5.87;3.07;;;;;;;17.81;83.80;99492.00;5148366;27;20581;-68
2022/04/27 00:07:06;;;;;;;2.70;2.50;;;;;;;17.66;84.64;99480.97;5143095;27;20295;-69
2022/04/27 00:09:33;;;;;;;2.87;2.67;;;;;;;17.47;84.83;99493.00;5134046;27;20190;-69
2022/04/27 00:12:01;;;;;;;2.27;2.03;;;;;;;17.33;85.12;99492.44;5134455;27;20221;-68
2022/04/27 00:14:29;;;;;;;2.07;1.97;;;;;;;17.27;86.08;99489.88;5135434;27;20196;-68
2022/04/27 00:16:56;;;;;;;3.57;2.30;;;;;;;17.22;86.50;99490.59;5134672;27;20218;-68
2022/04/27 00:19:23;;;;;;;2.63;2.50;;;;;;;17.10;87.23;99480.94;5134667;27;20246;-67
2022/04/27 00:21:50;;;;;;;2.80;2.60;;;;;;;17.01;87.06;99483.19;5134046;27;20198;-67
2022/04/27 00:24:17;;;;;;;3.17;2.97;;;;;;;16.82;88.17;99486.28;5135177;27;20615;-68
2022/04/27 00:26:44;;;;;;;2.70;2.50;;;;;;;16.76;88.94;99482.66;5134364;27;20574;-68
2022/04/27 00:29:12;;;;;;;3.17;2.53;;;;;;;16.73;89.37;99482.28;5134973;27;20251;-68
2022/04/27 00:31:39;;;;;;;2.13;2.03;;;;;;;16.68;89.48;99487.56;5134250;27;20243;-67
2022/04/27 00:34:05;;;;;;;2.50;2.30;;;;;;;16.52;89.70;99485.59;5134705;27;20627;-68
2022/04/27 00:36:32;;;;;;;2.67;2.30;;;;;;;16.41;90.65;99475.72;5134220;27;20218;-68
2022/04/27 00:38:59;;;;;;;2.50;2.30;;;;;;;16.33;91.31;99484.06;5134481;27;20190;-67
2022/04/27 00:41:26;;;;;;;2.70;2.60;;;;;;;16.26;92.06;99469.94;5135417;27;20654;-67
2022/04/27 00:43:52;;;;;;;2.40;2.30;;;;;;;16.22;92.53;99476.81;5134506;27;20190;-68
2022/04/27 00:46:20;;;;;;;2.83;2.50;;;;;;;16.18;92.64;99467.63;5135157;27;20239;-68
2022/04/27 00:48:47;;;;;;;2.47;2.37;;;;;;;16.13;92.86;99475.53;5133578;27;20291;-68
2022/04/27 00:51:17;;;;;;;3.63;2.40;;;;;;;16.01;93.12;99474.72;5134692;27;20188;-68
2022/04/27 00:53:43;;;;;;;2.80;2.70;;;;;;;16.00;92.79;99465.06;5133822;27;20192;-68
2022/04/27 00:56:11;;;;;;;2.57;2.37;;;;;;;15.94;93.06;99472.94;5134894;27;20221;-68
2022/04/27 00:58:37;;;;;;;2.50;2.40;;;;;;;15.98;92.79;99472.50;5134166;27;20221;-68
2022/04/27 01:01:04;;;;;;;2.67;2.57;;;;;;;15.92;93.18;99462.72;5134462;27;20190;-68
2022/04/27 01:03:36;;;;;;;3.87;2.97;;;;;;;15.71;93.66;99464.88;5134826;27;20230;-68
2022/04/27 01:06:04;;;;;;;3.50;3.20;;;;;;;15.76;93.97;99475.72;5135015;27;20266;-68
2022/04/27 01:08:31;;;;;;;3.07;2.87;;;;;;;15.80;93.96;99479.56;5134209;27;20194;-68
2022/04/27 01:11:00;;;;;;;3.80;3.10;;;;;;;15.78;94.21;99475.50;5133269;27;20250;-68
2022/04/27 01:13:28;;;;;;;3.40;3.20;;;;;;;15.71;94.19;99475.59;5134173;27;20229;-69
2022/04/27 01:15:55;;;;;;;3.50;3.20;;;;;;;15.72;95.12;99469.19;5133491;27;20214;-68
2022/04/27 01:18:22;;;;;;;3.60;3.30;;;;;;;15.71;95.21;99472.91;5133372;27;20198;-68
2022/04/27 01:20:50;;;;;;;5.13;3.47;;;;;;;15.62;95.19;99463.59;5132788;27;20190;-69
2022/04/27 01:23:17;;;;;;;4.13;3.90;;;;;;;15.60;96.17;99462.97;5134387;27;20272;-69
2022/04/27 01:25:49;;;;;;;3.20;2.90;;;;;;;15.60;95.44;99460.31;5133254;27;20251;-69
2022/04/27 01:28:18;;;;;;;3.57;3.20;;;;;;;15.62;94.55;99455.56;5134134;27;20251;-68
2022/04/27 01:30:45;;;;;;;3.73;3.40;;;;;;;15.61;94.74;99445.06;5133795;27;20239;-69
2022/04/27 01:33:12;;;;;;;4.13;3.07;;;;;;;15.59;94.87;99442.63;5134087;27;20193;-68
2022/04/27 01:35:40;;;;;;;3.37;3.07;;;;;;;15.57;94.67;99460.75;5134065;27;20254;-68
2022/04/27 01:38:08;;;;;;;3.53;3.13;;;;;;;15.49;95.23;99457.59;5133624;27;20701;-67
2022/04/27 01:40:35;;;;;;;4.70;3.20;;;;;;;15.45;94.88;99459.09;5134359;27;20189;-68
2022/04/27 01:43:02;;;;;;;3.70;3.40;;;;;;;15.41;94.80;99458.72;5134113;27;20190;-68
2022/04/27 01:45:29;;;;;;;3.17;2.97;;;;;;;15.21;95.52;99439.44;5133416;27;20482;-69
2022/04/27 01:47:57;;;;;;;3.63;3.43;;;;;;;15.18;95.90;99442.56;5133565;27;20194;-68
2022/04/27 01:50:24;;;;;;;3.30;3.10;;;;;;;15.19;95.97;99452.22;5134049;27;20612;-68
2022/04/27 01:55:37;;;;;;;3.00;2.70;;;;;;;15.23;96.17;99448.03;5132935;27;20177;-69
2022/04/27 01:58:04;;;;;;;2.77;2.53;;;;;;;15.23;95.88;99442.69;5132957;27;20277;-68
2022/04/27 02:00:30;;;;;;;3.13;2.97;;;;;;;15.27;96.62;99441.19;5132723;27;20190;-69
2022/04/27 02:02:57;;;;;;;3.40;3.23;;;;;;;15.35;96.16;99432.06;5132531;27;20194;-68
2022/04/27 02:05:24;;;;;;;3.17;2.87;;;;;;;15.36;95.48;99437.19;5133401;27;20246;-68
2022/04/27 02:07:51;;;;;;;3.43;3.17;;;;;;;15.37;95.92;99433.47;5132033;27;20190;-69
2022/04/27 02:10:17;;;;;;;3.37;3.23;;;;;;;15.42;96.16;99436.28;5131519;27;20242;-68
2022/04/27 02:12:46;;;;;;;2.90;2.80;;;;;;;15.44;95.53;99431.50;5133193;27;20197;-68
2022/04/27 02:15:13;;;;;;;3.33;3.10;;;;;;;15.46;95.10;99440.13;5132672;27;20769;-70
2022/04/27 02:17:40;;;;;;;3.20;3.00;;;;;;;15.46;95.17;99440.13;5132825;27;20221;-67
2022/04/27 02:20:08;;;;;;;3.10;2.90;;;;;;;15.48;95.58;99434.56;5131740;27;20276;-68
2022/04/27 02:22:34;;;;;;;3.47;3.17;;;;;;;15.49;95.20;99436.97;5133651;27;20190;-68
2022/04/27 02:25:02;;;;;;;4.87;4.43;;;;;;;15.49;94.59;99439.66;5133389;27;20190;-68
2022/04/27 02:27:29;;;;;;;4.23;3.63;;;;;;;15.40;94.41;99435.69;5132660;27;20229;-69
2022/04/27 02:29:57;;;;;;;3.67;3.37;;;;;;;15.46;94.66;99436.63;5132339;27;20731;-68
2022/04/27 02:32:23;;;;;;;3.60;3.40;;;;;;;15.49;95.00;99438.88;5131382;27;20239;-69
2022/04/27 02:34:51;;;;;;;3.87;3.63;;;;;;;15.49;95.06;99431.63;5132010;27;20186;-68
2022/04/27 02:37:18;;;;;;;3.83;3.63;;;;;;;15.51;94.32;99434.91;5132922;27;20609;-70
2022/04/27 02:39:45;;;;;;;4.50;3.43;;;;;;;15.48;94.23;99432.69;5131843;27;20280;-69
2022/04/27 02:42:12;;;;;;;5.23;3.73;;;;;;;15.52;94.90;99435.72;5133014;27;20189;-69
2022/04/27 02:44:39;;;;;;;4.37;3.97;;;;;;;15.49;94.61;99434.31;5131843;27;20239;-68
2022/04/27 02:47:07;;;;;;;4.70;3.80;;;;;;;15.50;94.12;99437.81;5132664;27;20197;-68
2022/04/27 02:52:18;;;;;;;6.67;4.37;;;;;;;15.44;94.46;99434.19;5132468;27;20313;-69
2022/04/27 02:54:45;;;;;;;4.57;4.27;;;;;;;15.39;94.57;99436.72;5130753;28;20219;-68
2022/04/27 02:57:12;;;;;;;4.60;4.30;;;;;;;15.37;94.67;99432.66;5130563;28;20957;-68
2022/04/27 02:59:38;;;;;;;4.87;4.47;;;;;;;15.36;94.03;99431.03;5132454;28;20624;-68
2022/04/27 03:02:06;;;;;;;4.87;4.47;;;;;;;15.32;93.57;99435.16;5131961;28;20250;-68
2022/04/27 03:04:33;;;;;;;4.70;4.40;;;;;;;15.27;94.10;99435.84;5131932;28;20194;-70
2022/04/27 03:07:00;;;;;;;5.33;4.93;;;;;;;15.28;94.49;99434.78;5131930;28;20297;-67
2022/04/27 03:09:27;;;;;;;6.33;4.30;;;;;;;15.28;94.82;99434.78;5130908;28;20631;-69
2022/04/27 03:11:54;;;;;;;4.97;4.50;;;;;;;15.25;94.49;99437.13;5132455;28;20672;-69
2022/04/27 03:14:20;;;;;;;4.13;3.90;;;;;;;15.23;93.93;99436.50;5131408;28;20190;-68
2022/04/27 03:16:47;;;;;;;4.73;4.37;;;;;;;15.18;94.05;99439.88;5132689;28;20217;-67
2022/04/27 03:19:16;;;;;;;4.13;3.83;;;;;;;15.19;94.21;99446.03;5132016;28;20258;-67
2022/04/27 03:21:43;;;;;;;5.20;4.73;;;;;;;15.18;94.44;99445.25;5131964;28;20190;-69
2022/04/27 03:24:10;;;;;;;4.93;4.50;;;;;;;15.09;94.68;99430.56;5131100;28;20190;-67
2022/04/27 03:26:36;;;;;;;4.73;4.10;;;;;;;15.11;95.66;99435.69;5132471;28;20676;-68
2022/04/27 03:29:04;;;;;;;5.37;4.90;;;;;;;15.09;95.41;99445.78;5132053;28;20257;-67
2022/04/27 03:31:31;;;;;;;8.40;7.27;;;;;;;15.09;95.18;99441.25;5132428;28;20230;-68
2022/04/27 03:33:57;;;;;;;7.67;6.80;;;;;;;15.15;94.99;99452.91;5132406;28;20187;-69
2022/04/27 03:36:26;;;;;;;9.73;6.90;;;;;;;15.12;94.93;99446.13;5132375;28;20190;-69
2022/04/27 03:38:53;;;;;;;9.77;7.57;;;;;;;14.93;94.98;99409.78;5132364;28;20668;-68
2022/04/27 03:41:22;;;;;;;6.07;5.03;;;;;;;15.21;94.06;99455.50;5132402;27;20194;-68
2022/04/27 03:43:50;;;;;;;6.73;4.97;;;;;;;15.22;93.83;99456.28;5134914;27;20190;-68
2022/04/27 03:46:19;;;;;;;6.03;5.57;;;;;;;15.28;93.53;99455.41;5136419;27;20217;-68
2022/04/27 03:48:46;;;;;;;5.27;4.37;;;;;;;15.41;92.96;99458.72;5135997;27;20741;-68
2022/04/27 03:51:13;;;;;;;4.03;3.73;;;;;;;15.60;92.18;99464.81;5136141;27;20245;-67
2022/04/27 03:53:41;;;;;;;5.67;4.60;;;;;;;15.88;93.15;99472.25;5136790;27;20194;-67
2022/04/27 03:56:08;;;;;;;9.50;8.50;;;;;;;16.21;90.63;99472.53;5135917;27;20190;-68
2022/04/27 03:58:35;;;;;;;4.27;3.87;;;;;;;16.51;87.20;99486.66;5135872;27;20651;-70
2022/04/27 04:01:01;;;;;;;4.50;4.20;;;;;;;17.22;92.60;99474.47;5135426;27;20247;-72
2022/04/27 04:03:28;;;;;;;8.37;4.10;;;;;;;17.63;82.75;99484.13;5135498;27;20196;-71
2022/04/27 04:05:55;;;;;;;4.03;3.63;;;;;;;18.55;84.55;99488.91;5134866;27;20247;-71
2022/04/27 04:08:21;;;;;;;4.00;3.13;;;;;;;19.48;77.39;99489.59;5134364;27;20666;-71
2022/04/27 04:10:50;;;;;;;3.17;2.87;;;;;;;20.40;73.20;99504.47;5134971;27;20190;-70
2022/04/27 04:13:16;;;;;;;4.07;3.57;;;;;;;21.23;69.61;99514.44;5135716;27;20543;-70
2022/04/27 04:15:43;;;;;;;9.57;3.57;;;;;;;21.53;64.61;99512.66;5135423;27;20253;-70
2022/04/27 04:18:10;;;;;;;5.63;3.30;;;;;;;22.00;64.75;99516.00;5135533;27;20218;-70
2022/04/27 04:20:36;;;;;;;4.23;3.37;;;;;;;22.49;63.89;99514.41;5135394;27;20194;-70
2022/04/27 04:23:03;;;;;;;5.33;3.30;;;;;;;22.92;58.91;99540.06;5135182;27;20595;-70
2022/04/27 04:28:30;;;;;;;6.97;2.90;;;;;;;22.92;60.60;99532.75;5128130;27;20206;-68
2022/04/27 04:30:58;;;;;;;15.70;3.60;;;;;;;23.62;58.68;99540.63;5113669;28;20218;-69
2022/04/27 04:33:25;;;;;;;5.27;3.50;;;;;;;23.83;54.32;99553.00;5115150;28;20191;-69
2022/04/27 04:35:52;;;;;;;9.73;3.67;;;;;;;23.63;54.47;99553.09;5115105;28;20186;-70
2022/04/27 04:38:19;;;;;;;5.90;3.23;;;;;;;23.79;53.65;99551.94;5114430;28;20268;-70
2022/04/27 04:40:45;;;;;;;6.83;4.00;;;;;;;23.84;53.07;99549.19;5114688;28;20252;-71
2022/04/27 04:43:12;;;;;;;6.67;3.63;;;;;;;23.90;54.27;99547.25;5114510;28;20188;-68
2022/04/27 04:45:40;;;;;;;9.37;3.90;;;;;;;24.15;54.01;99545.22;5114876;28;20267;-70
2022/04/27 04:48:08;;;;;;;7.40;3.53;;;;;;;24.06;52.62;99557.75;5114494;28;20200;-68
2022/04/27 04:50:35;;;;;;;5.80;3.27;;;;;;;24.11;52.43;99549.59;5114759;28;20215;-68
2022/04/27 04:53:01;;;;;;;6.87;3.67;;;;;;;24.18;53.75;99560.91;5114616;28;20192;-69
2022/04/27 04:55:29;;;;;;;4.10;2.93;;;;;;;24.38;51.61;99570.84;5114693;28;20249;-69
2022/04/27 04:57:55;;;;;;;7.07;3.37;;;;;;;24.16;52.63;99554.97;5112707;28;20310;-69
2022/04/27 05:00:22;;;;;;;4.17;3.10;;;;;;;24.14;52.37;99565.28;5112108;28;20740;-69
2022/04/27 05:02:50;;;;;;;13.87;3.50;;;;;;;23.91;52.92;99567.91;5113103;28;20195;-69
2022/04/27 05:05:17;;;;;;;3.60;3.30;;;;;;;23.74;53.25;99562.00;5112676;28;20226;-69
2022/04/27 05:07:43;;;;;;;5.13;3.57;;;;;;;23.80;53.30;99561.69;5113182;28;20191;-69
2022/04/27 05:10:10;;;;;;;4.03;3.30;;;;;;;23.57;53.93;99556.13;5113345;28;20190;-69
2022/04/27 05:12:37;;;;;;;5.57;3.50;;;;;;;23.59;54.12;99554.75;5113661;28;20252;-69
2022/04/27 05:15:04;;;;;;;8.97;4.00;;;;;;;23.67;54.07;99565.00;5113770;28;20199;-69
2022/04/27 05:17:31;;;;;;;4.43;3.20;;;;;;;23.94;54.35;99553.78;5114678;28;20215;-69
2022/04/27 05:19:59;;;;;;;5.57;3.40;;;;;;;24.31;53.53;99560.28;5114443;28;20537;-69
2022/04/27 05:22:25;;;;;;;7.17;3.80;;;;;;;24.87;50.68;99569.59;5114126;28;20253;-68
2022/04/27 05:24:52;;;;;;;11.87;4.20;;;;;;;25.35;50.79;99569.66;5114004;28;20251;-69
2022/04/27 05:27:19;;;;;;;5.83;2.97;;;;;;;25.75;48.56;99569.13;5114779;28;20251;-69
2022/04/27 05:32:29;;;;;;;15.70;4.47;;;;;;;26.11;47.56;99578.44;5119496;27;20204;-68
2022/04/27 05:34:56;;;;;;;8.30;3.40;;;;;;;26.14;48.17;99566.97;5125074;27;20186;-69
2022/04/27 05:37:24;;;;;;;7.33;3.80;;;;;;;26.12;47.22;99580.06;5120120;27;20643;-68
2022/04/27 05:39:51;;;;;;;6.67;3.27;;;;;;;26.28;47.51;99578.72;5113493;28;20195;-68
2022/04/27 05:42:17;;;;;;;6.63;3.23;;;;;;;26.65;46.44;99578.69;5132791;27;20243;-69
2022/04/27 05:44:44;;;;;;;7.43;3.60;;;;;;;27.07;44.92;99587.47;5133888;27;20215;-68
2022/04/27 05:47:12;;;;;;;7.63;3.67;;;;;;;26.89;45.01;99579.34;5133737;27;20678;-68
2022/04/27 05:49:38;;;;;;;18.93;4.67;;;;;;;26.81;45.49;99583.59;5124195;27;20191;-68
2022/04/27 05:52:05;;;;;;;5.50;3.50;;;;;;;26.62;45.87;99582.81;5113185;28;20198;-68
2022/04/27 05:54:33;;;;;;;5.13;3.60;;;;;;;26.46;46.12;99583.34;5113059;28;20191;-68
2022/04/27 05:57:00;;;;;;;6.80;3.50;;;;;;;26.10;46.36;99580.38;5113266;28;20569;-68
2022/04/27 05:59:28;;;;;;;6.43;3.50;;;;;;;25.81;47.93;99573.41;5113410;28;20191;-68
2022/04/27 06:01:54;;;;;;;4.20;3.80;;;;;;;25.82;48.09;99581.28;5113011;28;20212;-68
2022/04/27 06:04:21;;;;;;;18.17;5.13;;;;;;;25.36;49.78;99572.09;5113085;28;20199;-68
2022/04/27 06:06:48;;;;;;;6.00;3.77;;;;;;;25.35;49.56;99575.09;5122793;27;20652;-67
2022/04/27 06:09:14;;;;;;;5.37;3.30;;;;;;;25.23;50.07;99570.00;5129614;27;20204;-67
2022/04/27 06:11:42;;;;;;;5.00;2.83;;;;;;;25.57;50.19;99564.47;5133137;27;20197;-66
2022/04/27 06:14:09;;;;;;;6.00;2.67;;;;;;;26.49;47.13;99580.00;5133344;27;20246;-67
2022/04/27 06:16:36;;;;;;;5.37;3.10;;;;;;;26.93;44.09;99591.28;5133728;27;20285;-66
2022/04/27 06:19:03;;;;;;;9.43;3.20;;;;;;;27.13;44.98;99580.00;5132836;27;20706;-66
2022/04/27 06:21:31;;;;;;;6.60;2.87;;;;;;;27.42;43.97;99588.72;5132451;27;20190;-69
2022/04/27 06:23:58;;;;;;;3.13;2.90;;;;;;;27.73;44.00;99589.72;5112571;28;20586;-67
2022/04/27 06:26:26;;;;;;;8.80;3.00;;;;;;;28.03;42.87;99589.09;5129388;27;20280;-67
2022/04/27 06:28:54;;;;;;;3.43;3.20;;;;;;;27.76;41.83;99600.06;5133539;27;20194;-67
2022/04/27 06:31:21;;;;;;;6.03;3.13;;;;;;;27.66;43.73;99590.16;5132891;27;20243;-68
2022/04/27 06:33:47;;;;;;;3.10;2.80;;;;;;;28.02;41.66;99595.69;5131896;27;20190;-70
2022/04/27 06:36:14;;;;;;;3.63;2.90;;;;;;;28.30;41.44;99595.28;5131670;27;20762;-68
2022/04/27 06:38:40;;;;;;;2.93;2.10;;;;;;;28.17;41.43;99598.06;5131887;27;20790;-69
2022/04/27 06:41:08;;;;;;;2.30;1.80;;;;;;;28.00;39.63;99597.88;5132555;27;20186;-68
2022/04/27 06:43:35;;;;;;;5.97;2.33;;;;;;;27.68;41.61;99592.56;5131858;27;20657;-67
2022/04/27 06:46:03;;;;;;;4.47;2.40;;;;;;;27.55;42.92;99594.19;5132704;27;20274;-69
2022/04/27 06:48:30;;;;;;;7.07;2.03;;;;;;;27.99;42.14;99593.56;5132302;27;20242;-69
2022/04/27 06:50:56;;;;;;;2.70;2.10;;;;;;;28.27;40.06;99595.09;5111097;28;20199;-68
2022/04/27 06:53:23;;;;;;;3.57;2.50;;;;;;;28.54;40.34;99606.75;5110892;28;20198;-68
2022/04/27 06:55:50;;;;;;;71.17;7.27;;;;;;;28.76;40.52;99597.72;5110891;28;20230;-69
2022/04/27 06:58:17;;;;;;;4.33;2.40;;;;;;;28.94;39.46;99596.72;5110935;28;20261;-69
2022/04/27 07:00:44;;;;;;;22.10;3.67;;;;;;;29.06;39.20;99594.22;5111321;28;20236;-68
2022/04/27 07:03:12;;;;;;;11.60;3.10;;;;;;;29.26;38.70;99596.41;5111579;28;20226;-68
2022/04/27 07:05:39;;;;;;;31.30;4.10;;;;;;;29.59;38.31;99594.97;5111706;28;20331;-67
2022/04/27 07:08:06;;;;;;;70.47;7.23;;;;;;;29.69;37.14;99594.69;5112472;28;20204;-67
2022/04/27 07:10:36;;;;;;;15.07;3.30;;;;;;;29.90;37.59;99597.59;5112040;28;20194;-68
2022/04/27 07:13:04;;;;;;;10.33;2.70;;;;;;;30.07;37.12;99597.63;5111658;28;20201;-68
2022/04/27 07:15:31;;;;;;;15.10;3.27;;;;;;;30.14;36.89;99590.59;5111636;28;20191;-67
2022/04/27 07:17:57;;;;;;;18.40;4.23;;;;;;;29.93;36.71;99597.75;5126999;27;20270;-68
2022/04/27 07:20:26;;;;;;;20.83;6.33;;;;;;;29.78;37.73;99592.75;5135894;27;20181;-70
2022/04/27 07:22:53;;;;;;;5.07;2.90;;;;;;;29.82;37.13;99599.22;5123976;27;20233;-70
2022/04/27 07:25:19;;;;;;;6.13;2.70;;;;;;;30.00;35.80;99600.84;5111222;27;20248;-68
2022/04/27 07:27:46;;;;;;;5.93;2.77;;;;;;;30.07;35.82;99592.16;5124981;27;20260;-68
2022/04/27 07:30:13;;;;;;;6.53;2.67;;;;;;;30.21;35.94;99593.63;5116155;28;20294;-70
2022/04/27 07:32:40;;;;;;;4.17;2.63;;;;;;;30.30;35.82;99599.13;5115735;28;20315;-69
2022/04/27 07:35:08;;;;;;;3.80;2.37;;;;;;;30.49;34.59;99594.13;5115725;28;20194;-70
2022/04/27 07:37:39;;;;;;;2.97;2.67;;;;;;;30.70;34.62;99584.91;5115047;28;20396;-69
2022/04/27 07:40:10;;;;;;;4.77;2.73;;;;;;;30.97;34.05;99589.22;5118762;27;20179;-68
2022/04/27 07:42:36;;;;;;;9.33;2.70;;;;;;;31.02;33.02;99583.53;5136142;27;20186;-69
2022/04/27 07:45:03;;;;;;;6.67;2.87;;;;;;;31.06;33.15;99590.81;5135487;27;20240;-68
2022/04/27 07:47:39;;;;;;;3.73;3.17;;;;;;;30.95;32.63;99584.03;5135025;27;20190;-69
2022/04/27 07:50:07;;;;;;;5.83;3.17;;;;;;;30.52;33.70;99579.75;5135912;27;20181;-70
2022/04/27 07:52:34;;;;;;;12.43;3.53;;;;;;;30.27;34.83;99575.09;5135652;27;20190;-69
2022/04/27 07:55:02;;;;;;;5.10;3.20;;;;;;;30.02;35.74;99576.69;5135011;27;20887;-69
2022/04/27 07:57:30;;;;;;;4.70;3.47;;;;;;;30.23;34.68;99576.88;5135762;27;20254;-69
2022/04/27 07:59:57;;;;;;;7.87;3.17;;;;;;;30.22;34.82;99578.81;5134863;27;20189;-69
2022/04/27 08:02:23;;;;;;;3.03;2.77;;;;;;;30.43;34.36;99570.72;5135392;27;20662;-69
2022/04/27 08:04:50;;;;;;;5.97;2.97;;;;;;;30.42;33.93;99575.41;5135366;27;20235;-71
2022/04/27 08:07:17;;;;;;;8.10;3.47;;;;;;;30.08;35.13;99571.84;5135973;27;20230;-70
2022/04/27 08:09:44;;;;;;;4.27;2.93;;;;;;;30.17;35.21;99569.94;5135167;27;20714;-70
2022/04/27 08:12:12;;;;;;;8.80;3.70;;;;;;;30.29;34.92;99570.91;5136068;27;20185;-70
2022/04/27 08:14:38;;;;;;;10.47;3.80;;;;;;;30.31;34.37;99562.34;5135578;27;20233;-72
2022/04/27 08:17:05;;;;;;;10.27;4.00;;;;;;;30.31;34.60;99568.66;5135825;27;20254;-71
2022/04/27 08:19:32;;;;;;;5.43;3.27;;;;;;;30.49;33.11;99566.72;5136117;27;20218;-70
2022/04/27 08:21:59;;;;;;;7.60;3.20;;;;;;;30.47;34.12;99567.03;5136029;27;20246;-73
2022/04/27 08:24:26;;;;;;;3.97;3.50;;;;;;;30.38;33.91;99571.69;5134865;27;20644;-72
2022/04/27 08:26:53;;;;;;;9.90;3.73;;;;;;;30.32;33.65;99569.44;5131421;27;20195;-73
2022/04/27 08:29:21;;;;;;;5.63;3.13;;;;;;;30.32;34.35;99564.78;5134324;27;20216;-72
2022/04/27 08:31:48;;;;;;;11.53;4.40;;;;;;;30.02;33.84;99571.19;5122264;27;20251;-71
2022/04/27 08:34:15;;;;;;;6.60;3.17;;;;;;;29.65;35.30;99566.31;5119668;27;20248;-71
2022/04/27 08:36:41;;;;;;;3.07;2.87;;;;;;;29.47;34.70;99553.66;5129990;27;20186;-72
2022/04/27 08:39:08;;;;;;;9.90;4.40;;;;;;;29.73;35.08;99557.31;5133184;27;20210;-73
2022/04/27 08:41:35;;;;;;;6.80;4.10;;;;;;;30.12;35.95;99556.34;5119284;27;20208;-72
2022/04/27 08:44:02;;;;;;;5.27;3.20;;;;;;;30.51;33.51;99557.03;5126051;27;20186;-75
2022/04/27 08:46:32;;;;;;;5.70;3.80;;;;;;;29.05;35.12;99551.59;5134008;27;20190;-71
2022/04/27 08:48:59;;;;;;;4.60;3.07;;;;;;;29.23;35.89;99547.00;5125852;27;20187;-72
2022/04/27 08:51:25;;;;;;;5.23;2.97;;;;;;;29.53;35.61;99535.97;5114337;28;20671;-76
2022/04/27 08:53:52;;;;;;;4.90;3.30;;;;;;;29.60;34.10;99535.53;5113019;28;20247;-74
2022/04/27 08:56:19;;;;;;;6.63;3.40;;;;;;;29.65;34.57;99538.94;5114648;28;20191;-71
2022/04/27 08:58:46;;;;;;;6.97;3.63;;;;;;;29.45;34.74;99535.94;5112802;28;20263;-71
2022/04/27 09:01:13;;;;;;;3.60;2.97;;;;;;;29.06;35.62;99532.13;5114168;28;20187;-74
2022/04/27 09:03:42;;;;;;;3.23;2.90;;;;;;;29.23;35.62;99531.34;5112850;28;20653;-73
2022/04/27 09:06:11;;;;;;;6.83;3.03;;;;;;;29.62;34.90;99534.09;5113891;28;20702;-74
2022/04/27 09:08:40;;;;;;;7.70;3.00;;;;;;;29.76;35.04;99528.47;5112883;28;20592;-75
2022/04/27 09:11:20;;;;;;;7.47;3.03;;;;;;;29.81;34.94;99533.78;5114115;28;20198;-75
2022/04/27 09:13:49;;;;;;;3.97;3.03;;;;;;;29.36;34.81;99527.72;5111214;28;20867;-71
2022/04/27 09:16:18;;;;;;;5.63;3.60;;;;;;;28.97;35.49;99527.69;5113216;28;20560;-73
2022/04/27 09:22:01;;;;;;;5.33;3.30;;;;;;;29.13;35.34;99526.19;5112634;28;20773;-73
2022/04/27 09:24:29;;;;;;;9.73;3.00;;;;;;;29.25;35.14;99529.13;5111808;27;20225;-71
2022/04/27 09:27:14;;;;;;;10.00;3.00;;;;;;;29.07;36.06;99521.97;5116879;27;20747;-68
2022/04/27 09:29:41;;;;;;;4.97;3.10;;;;;;;28.89;36.30;99517.53;5108821;28;20672;-68
2022/04/27 09:32:10;;;;;;;5.00;3.20;;;;;;;28.98;36.90;99512.88;5116429;27;20285;-68
2022/04/27 09:34:46;;;;;;;6.50;2.97;;;;;;;29.09;36.90;99508.78;5126017;27;20250;-68
2022/04/27 09:37:17;;;;;;;5.73;2.87;;;;;;;29.11;36.23;99517.47;5113806;27;20310;-68
2022/04/27 09:39:44;;;;;;;7.20;3.53;;;;;;;28.96;36.42;99506.94;5116296;27;20198;-68
2022/04/27 09:42:12;;;;;;;5.63;3.60;;;;;;;28.97;36.84;99505.81;5132458;27;20246;-67
2022/04/27 09:44:39;;;;;;;3.80;2.73;;;;;;;28.60;36.51;99523.50;5133391;27;20201;-67
2022/04/27 09:47:08;;;;;;;5.30;2.60;;;;;;;28.68;36.98;99508.25;5133194;27;20242;-80
2022/04/27 09:49:36;;;;;;;10.23;2.93;;;;;;;28.84;36.70;99502.03;5118788;27;20263;-77
2022/04/27 09:52:06;;;;;;;8.70;3.47;;;;;;;28.89;37.55;99499.19;5111694;28;20194;-75
2022/04/27 09:54:36;;;;;;;4.83;3.00;;;;;;;28.33;39.45;99495.47;5110257;28;20183;-75
2022/04/27 09:57:04;;;;;;;10.13;3.30;;;;;;;28.16;40.19;99492.63;5111713;28;20205;-76
2022/04/27 09:59:35;;;;;;;11.07;3.70;;;;;;;28.38;39.73;99498.09;5122261;27;20273;-76
2022/04/27 10:02:08;;;;;;;11.27;3.27;;;;;;;28.59;39.31;99499.22;5133089;27;20178;-75
2022/04/27 10:04:36;;;;;;;7.10;3.57;;;;;;;28.72;38.61;99498.31;5132127;27;20182;-74
2022/04/27 10:07:07;;;;;;;6.77;3.43;;;;;;;28.76;38.34;99500.09;5114965;27;20587;-73
2022/04/27 10:09:34;;;;;;;4.43;3.13;;;;;;;28.69;39.09;99496.19;5113080;28;20195;-77
2022/04/27 10:12:03;;;;;;;3.27;3.07;;;;;;;28.63;39.11;99500.19;5132829;27;20243;-76
2022/04/27 10:14:31;;;;;;;6.70;3.23;;;;;;;28.18;40.36;99483.00;5133878;27;20217;-76
2022/04/27 10:16:58;;;;;;;4.27;3.20;;;;;;;28.34;40.34;99486.94;5121802;27;20250;-77
2022/04/27 10:19:25;;;;;;;3.40;2.80;;;;;;;28.45;40.13;99488.34;5124561;27;20210;-77
2022/04/27 10:21:59;;;;;;;3.20;2.90;;;;;;;28.47;40.26;99490.78;5123758;27;20185;-74
2022/04/27 10:24:52;;;;;;;6.23;2.97;;;;;;;28.51;39.94;99469.91;5112537;28;20240;-75
2022/04/27 10:27:20;;;;;;;7.67;3.23;;;;;;;28.14;41.47;99470.28;5112703;28;20194;-75
2022/04/27 10:29:58;;;;;;;6.33;3.27;;;;;;;28.17;41.00;99465.00;5113927;27;20659;-69
2022/04/27 10:32:42;;;;;;;2.97;2.70;;;;;;;28.19;41.07;99462.78;5132882;27;20715;-70
2022/04/27 10:35:21;;;;;;;7.07;3.13;;;;;;;28.37;40.66;99463.66;5132954;27;20183;-70
2022/04/27 10:37:49;;;;;;;4.70;2.60;;;;;;;28.51;40.71;99472.63;5132911;27;20644;-71
2022/04/27 10:40:33;;;;;;;5.33;3.03;;;;;;;28.28;41.22;99460.06;5126045;27;20717;-69
2022/04/27 10:43:25;;;;;;;7.43;2.57;;;;;;;27.52;42.03;99452.88;5112241;28;20251;-70
2022/04/27 10:45:51;;;;;;;3.40;3.10;;;;;;;27.88;41.53;99455.59;5133326;27;20239;-72
2022/04/27 10:48:23;;;;;;;7.77;3.30;;;;;;;28.07;41.74;99448.03;5127087;27;20263;-71
2022/04/27 10:50:57;;;;;;;3.50;3.20;;;;;;;28.27;41.22;99445.63;5112987;28;20231;-69
2022/04/27 10:53:25;;;;;;;6.53;3.70;;;;;;;28.11;42.46;99444.41;5112899;28;20248;-72
2022/04/27 10:55:55;;;;;;;3.80;3.30;;;;;;;28.09;41.24;99445.81;5112460;28;20190;-70
2022/04/27 10:58:32;;;;;;;7.43;3.20;;;;;;;28.01;41.15;99444.63;5112408;28;20191;-69
2022/04/27 11:01:27;;;;;;;3.27;2.23;;;;;;;28.23;41.07;99449.28;5111971;28;20201;-70
2022/04/27 11:03:56;;;;;;;3.73;2.23;;;;;;;28.20;40.00;99441.69;5112346;28;20214;-70
2022/04/27 11:06:23;;;;;;;4.30;2.47;;;;;;;28.23;39.83;99436.44;5110602;28;20230;-70
2022/04/27 11:09:09;;;;;;;1.93;1.77;;;;;;;28.06;39.98;99447.22;5112207;28;20190;-69
2022/04/27 11:11:51;;;;;;;15.40;2.60;;;;;;;28.18;39.22;99443.94;5119376;28;20585;-71
2022/04/27 11:14:20;;;;;;;4.20;1.93;;;;;;;28.33;39.29;99435.34;5130858;28;20214;-69
2022/04/27 11:16:48;;;;;;;4.87;1.87;;;;;;;28.49;39.27;99428.38;5128355;28;20185;-70
2022/04/27 11:19:16;;;;;;;3.70;2.03;;;;;;;28.50;39.17;99435.50;5119696;28;20214;-69
2022/04/27 11:21:43;;;;;;;3.03;1.93;;;;;;;28.47;38.84;99441.56;5114169;28;20186;-69
2022/04/27 11:24:11;;;;;;;2.70;1.90;;;;;;;28.42;36.97;99434.31;5112460;28;20248;-68
2022/04/27 11:26:48;;;;;;;3.57;1.80;;;;;;;28.50;38.24;99428.06;5112261;28;20222;-67
2022/04/27 11:29:16;;;;;;;3.23;1.90;;;;;;;28.44;38.59;99398.47;5112419;28;20239;-68
2022/04/27 11:31:43;;;;;;;5.00;2.00;;;;;;;28.73;38.53;99423.34;5112007;28;20187;-68
2022/04/27 11:34:29;;;;;;;2.40;1.63;;;;;;;28.71;36.96;99417.41;5112000;28;20191;-67
2022/04/27 11:36:56;;;;;;;5.70;2.00;;;;;;;28.70;38.14;99402.09;5110381;28;20663;-68
2022/04/27 11:39:24;;;;;;;5.33;2.33;;;;;;;28.63;37.56;99407.25;5111571;28;20215;-69
2022/04/27 11:42:00;;;;;;;2.03;1.77;;;;;;;28.36;37.92;99401.94;5130002;28;20195;-66
2022/04/27 11:44:28;;;;;;;2.80;2.03;;;;;;;28.32;37.87;99395.47;5131726;28;20182;-65
2022/04/27 11:46:55;;;;;;;3.73;2.80;;;;;;;28.07;38.91;99405.16;5131679;28;20186;-65
2022/04/27 11:49:23;;;;;;;7.20;2.17;;;;;;;27.99;39.01;99386.78;5131894;28;20198;-67
2022/04/27 11:51:50;;;;;;;5.00;2.47;;;;;;;27.90;38.78;99393.31;5132411;28;20195;-70